createdAt,value
2023-04-10T00:00:57.887Z,11.43
2023-04-10T00:03:26.587Z,9.18
2023-04-10T00:05:55.751Z,9.73
2023-04-10T00:08:30.057Z,10.43
2023-04-10T00:10:58.102Z,9.60
2023-04-10T00:13:26.496Z,10.65
2023-04-10T00:15:54.585Z,8.93
2023-04-10T00:18:22.549Z,9.50
2023-04-10T00:20:51.169Z,10.02
2023-04-10T00:23:22.708Z,9.57
2023-04-10T00:25:51.162Z,10.82
2023-04-10T00:28:19.659Z,10.40
2023-04-10T00:30:48.392Z,10.65
2023-04-10T00:33:17.062Z,11.15
2023-04-10T00:35:45.701Z,11.65
2023-04-10T00:38:14.426Z,10.13
2023-04-10T00:40:42.730Z,11.25
2023-04-10T00:43:11.306Z,10.38
2023-04-10T00:45:40.663Z,10.70
2023-04-10T00:48:09.171Z,10.90
2023-04-10T00:50:38.277Z,11.45
2023-04-10T00:53:06.657Z,11.43
2023-04-10T00:55:34.530Z,11.00
2023-04-10T00:58:02.602Z,11.20
2023-04-10T01:00:31.419Z,11.48
2023-04-10T01:03:01.741Z,10.90
2023-04-10T01:05:40.206Z,10.50
2023-04-10T01:08:26.229Z,10.68
2023-04-10T01:11:03.404Z,10.60
2023-04-10T01:14:00.632Z,9.05
2023-04-10T01:16:35.280Z,9.93
2023-04-10T01:19:46.935Z,11.80
2023-04-10T01:22:15.624Z,10.55
2023-04-10T01:25:01.295Z,12.15
2023-04-10T01:27:53.146Z,10.23
2023-04-10T01:30:23.475Z,9.60
2023-04-10T01:32:52.486Z,9.75
2023-04-10T01:35:20.985Z,8.35
2023-04-10T01:37:49.899Z,9.60
2023-04-10T01:40:19.963Z,10.40
2023-04-10T01:42:55.692Z,10.23
2023-04-10T01:45:30.259Z,10.65
2023-04-10T01:47:59.167Z,10.65
2023-04-10T01:50:28.915Z,10.50
2023-04-10T01:52:59.227Z,9.82
2023-04-10T01:55:29.163Z,11.07
2023-04-10T01:58:03.433Z,10.45
2023-04-10T02:00:31.769Z,10.57
2023-04-10T02:03:00.141Z,9.07
2023-04-10T02:05:32.931Z,9.65
2023-04-10T02:08:15.076Z,9.95
2023-04-10T02:10:53.188Z,9.95
2023-04-10T02:13:22.946Z,9.05
2023-04-10T02:15:52.614Z,10.75
2023-04-10T02:18:21.267Z,9.60
2023-04-10T02:20:49.422Z,10.23
2023-04-10T02:23:19.543Z,10.13
2023-04-10T02:25:48.101Z,10.02
2023-04-10T02:28:18.300Z,10.15
2023-04-10T02:30:46.514Z,9.60
2023-04-10T02:33:14.364Z,11.40
2023-04-10T02:35:42.826Z,11.25
2023-04-10T02:38:11.048Z,10.18
2023-04-10T02:40:39.249Z,10.15
2023-04-10T02:43:15.107Z,10.23
2023-04-10T02:45:44.235Z,9.02
2023-04-10T02:48:16.137Z,9.95
2023-04-10T02:50:46.812Z,9.45
2023-04-10T02:53:16.473Z,9.57
2023-04-10T02:55:44.642Z,9.82
2023-04-10T02:58:14.860Z,10.27
2023-04-10T03:00:49.472Z,10.02
2023-04-10T03:03:38.032Z,8.73
2023-04-10T03:06:08.034Z,9.20
2023-04-10T03:08:37.548Z,9.95
2023-04-10T03:11:08.182Z,9.13
2023-04-10T03:13:36.221Z,10.73
2023-04-10T03:16:04.727Z,10.52
2023-04-10T03:18:34.456Z,10.15
2023-04-10T03:21:03.012Z,9.55
2023-04-10T03:23:31.638Z,10.43
2023-04-10T03:25:59.777Z,11.52
2023-04-10T03:28:30.947Z,11.18
2023-04-10T03:30:59.028Z,10.43
2023-04-10T03:33:28.157Z,10.38
2023-04-10T03:35:57.561Z,12.02
2023-04-10T03:38:26.919Z,12.07
2023-04-10T03:40:55.020Z,10.93
2023-04-10T03:43:26.483Z,10.38
2023-04-10T03:45:54.669Z,11.80
2023-04-10T03:48:24.145Z,10.60
2023-04-10T03:50:52.721Z,10.65
2023-04-10T03:53:20.835Z,11.57
2023-04-10T03:55:48.966Z,10.80
2023-04-10T03:58:16.992Z,11.02
2023-04-10T04:00:45.674Z,11.85
2023-04-10T04:03:34.454Z,11.73
2023-04-10T04:06:07.802Z,11.50
2023-04-10T04:09:04.004Z,9.90
2023-04-10T04:11:49.707Z,10.73
2023-04-10T04:14:40.766Z,10.45
2023-04-10T04:17:36.851Z,10.93
2023-04-10T04:20:06.334Z,10.93
2023-04-10T04:22:52.700Z,10.70
2023-04-10T04:25:59.022Z,11.70
2023-04-10T04:28:45.844Z,10.07
2023-04-10T04:31:32.949Z,11.32
2023-04-10T04:34:30.207Z,12.00
2023-04-10T04:37:13.751Z,11.85
2023-04-10T04:40:02.557Z,9.82
2023-04-10T04:42:56.542Z,11.13
2023-04-10T04:45:37.100Z,11.50
2023-04-10T04:48:23.823Z,11.13
2023-04-10T04:51:10.330Z,13.05
2023-04-10T04:53:45.641Z,12.00
2023-04-10T04:56:28.584Z,11.10
2023-04-10T04:59:15.165Z,12.23
2023-04-10T05:02:01.210Z,11.18
2023-04-10T05:05:07.805Z,9.85
2023-04-10T05:07:58.012Z,11.35
2023-04-10T05:10:46.656Z,9.30
2023-04-10T05:13:24.240Z,10.85
2023-04-10T05:16:18.736Z,10.80
2023-04-10T05:19:02.332Z,11.40
2023-04-10T05:21:49.041Z,10.55
2023-04-10T05:24:31.534Z,11.50
2023-04-10T05:27:19.200Z,11.13
2023-04-10T05:29:56.359Z,10.77
2023-04-10T05:33:02.953Z,10.60
2023-04-10T05:35:53.483Z,11.57
2023-04-10T05:38:37.755Z,11.25
2023-04-10T05:41:26.904Z,11.70
2023-04-10T05:44:17.968Z,11.07
2023-04-10T05:46:58.200Z,11.38
2023-04-10T05:49:47.360Z,11.55
2023-04-10T05:52:34.014Z,11.02
2023-04-10T05:55:22.125Z,10.82
2023-04-10T05:58:13.048Z,11.20
2023-04-10T06:01:11.590Z,11.80
2023-04-10T06:03:54.052Z,11.52
2023-04-10T06:06:24.666Z,10.68
2023-04-10T06:08:53.443Z,10.40
2023-04-10T06:11:23.082Z,11.20
2023-04-10T06:16:28.838Z,9.80
2023-04-10T06:18:57.202Z,11.65
2023-04-10T06:21:25.351Z,11.27
2023-04-10T06:23:53.625Z,12.38
2023-04-10T06:26:21.634Z,12.68
2023-04-10T06:28:49.886Z,12.35
2023-04-10T06:31:23.277Z,13.32
2023-04-10T06:33:51.878Z,12.13
2023-04-10T06:36:19.855Z,11.98
2023-04-10T06:38:51.969Z,12.15
2023-04-10T06:41:20.421Z,11.00
2023-04-10T06:43:51.087Z,12.60
2023-04-10T06:46:19.228Z,10.52
2023-04-10T06:48:49.583Z,11.02
2023-04-10T06:51:17.727Z,11.70
2023-04-10T06:53:45.842Z,11.65
2023-04-10T06:56:13.781Z,10.45
2023-04-10T06:58:41.777Z,10.18
2023-04-10T07:01:09.749Z,10.57
2023-04-10T07:03:38.664Z,11.07
2023-04-10T07:06:08.283Z,10.73
2023-04-10T07:08:36.605Z,11.75
2023-04-10T07:11:05.089Z,9.77
2023-04-10T07:13:33.459Z,9.82
2023-04-10T07:16:01.714Z,9.82
2023-04-10T07:18:29.730Z,9.30
2023-04-10T07:20:57.913Z,9.80
2023-04-10T07:23:25.833Z,9.95
2023-04-10T07:25:54.062Z,8.98
2023-04-10T07:28:22.241Z,9.68
2023-04-10T07:30:50.115Z,8.38
2023-04-10T07:33:18.065Z,9.15
2023-04-10T07:35:46.443Z,8.30
2023-04-10T07:38:14.572Z,9.35
2023-04-10T07:40:42.785Z,9.80
2023-04-10T07:43:10.801Z,8.73
2023-04-10T07:45:39.001Z,8.80
2023-04-10T07:48:07.429Z,8.15
2023-04-10T07:50:36.424Z,6.60
2023-04-10T07:53:08.198Z,7.38
2023-04-10T07:55:54.294Z,8.20
2023-04-10T07:58:22.947Z,7.20
2023-04-10T08:00:52.749Z,8.02
2023-04-10T08:03:21.264Z,8.38
2023-04-10T08:05:49.696Z,7.75
2023-04-10T08:08:18.232Z,7.93
2023-04-10T08:10:46.331Z,7.22
2023-04-10T08:13:14.608Z,9.25
2023-04-10T08:15:42.653Z,7.72
2023-04-10T08:18:11.019Z,7.55
2023-04-10T08:20:39.258Z,9.15
2023-04-10T08:23:19.826Z,8.88
2023-04-10T08:25:48.928Z,7.60
2023-04-10T08:28:16.873Z,7.28
2023-04-10T08:30:45.107Z,7.40
2023-04-10T08:33:13.280Z,8.65
2023-04-10T08:35:42.370Z,7.53
2023-04-10T08:38:13.975Z,7.40
2023-04-10T08:40:44.877Z,8.25
2023-04-10T08:43:14.321Z,8.23
2023-04-10T08:45:42.763Z,7.18
2023-04-10T08:48:11.819Z,7.63
2023-04-10T08:50:50.932Z,7.70
2023-04-10T08:53:21.743Z,7.50
2023-04-10T08:55:49.781Z,8.15
2023-04-10T08:58:17.989Z,7.45
2023-04-10T09:00:46.924Z,7.53
2023-04-10T09:03:16.955Z,7.97
2023-04-10T09:05:45.030Z,8.13
2023-04-10T09:08:15.036Z,8.48
2023-04-10T09:10:43.124Z,8.13
2023-04-10T09:13:11.440Z,8.25
2023-04-10T09:15:59.854Z,7.45
2023-04-10T09:18:48.231Z,7.28
2023-04-10T09:21:18.572Z,7.30
2023-04-10T09:23:48.647Z,7.85
2023-04-10T09:26:30.916Z,6.80
2023-04-10T09:29:03.523Z,6.97
2023-04-10T09:31:34.398Z,7.38
2023-04-10T09:34:11.756Z,6.82
2023-04-10T09:36:46.781Z,6.43
2023-04-10T09:39:14.854Z,6.88
2023-04-10T09:41:53.400Z,7.97
2023-04-10T09:44:31.484Z,7.05
2023-04-10T09:47:22.715Z,5.50
2023-04-10T09:49:55.625Z,4.68
2023-04-10T09:52:28.385Z,4.95
2023-04-10T09:55:08.821Z,4.20
2023-04-10T09:57:38.833Z,3.63
2023-04-10T10:00:09.722Z,4.18
2023-04-10T10:02:43.503Z,3.53
2023-04-10T10:05:12.728Z,5.00
2023-04-10T10:07:40.984Z,4.75
2023-04-10T10:10:13.299Z,5.55
2023-04-10T10:13:02.911Z,4.90
2023-04-10T10:15:39.432Z,4.60
2023-04-10T10:18:22.701Z,5.50
2023-04-10T10:20:51.780Z,4.57
2023-04-10T10:23:20.923Z,6.03
2023-04-10T10:25:50.262Z,4.97
2023-04-10T10:28:19.442Z,5.18
2023-04-10T10:30:50.043Z,5.75
2023-04-10T10:33:18.795Z,5.57
2023-04-10T10:35:47.814Z,4.95
2023-04-10T10:38:16.709Z,5.57
2023-04-10T10:41:17.209Z,6.00
2023-04-10T10:44:13.871Z,5.40
2023-04-10T10:47:16.329Z,3.67
2023-04-10T10:49:58.298Z,3.53
2023-04-10T10:52:41.937Z,3.10
2023-04-10T10:55:39.844Z,2.85
2023-04-10T10:58:11.903Z,2.88
2023-04-10T11:00:52.442Z,3.70
2023-04-10T11:03:23.081Z,3.75
2023-04-10T11:05:54.374Z,3.20
2023-04-10T11:08:37.698Z,3.00
2023-04-10T11:11:06.607Z,3.10
2023-04-10T11:14:01.589Z,3.25
2023-04-10T11:16:40.081Z,3.28
2023-04-10T11:19:16.426Z,4.13
2023-04-10T11:22:15.481Z,3.60
2023-04-10T11:25:00.551Z,3.10
2023-04-10T11:27:49.618Z,4.10
2023-04-10T11:30:37.302Z,3.22
2023-04-10T11:33:09.298Z,3.03
2023-04-10T11:35:37.437Z,3.13
2023-04-10T11:38:14.455Z,3.08
2023-04-10T11:41:04.558Z,3.40
2023-04-10T11:43:35.362Z,2.83
2023-04-10T11:46:08.139Z,3.60
2023-04-10T11:48:39.597Z,2.92
2023-04-10T11:51:22.812Z,3.35
2023-04-10T11:53:51.294Z,2.72
2023-04-10T11:56:22.302Z,2.47
2023-04-10T11:58:58.387Z,2.88
2023-04-10T12:01:29.763Z,2.30
2023-04-10T12:03:58.731Z,3.08
2023-04-10T12:06:28.658Z,2.85
2023-04-10T12:09:17.815Z,2.80
2023-04-10T12:12:02.153Z,3.13
2023-04-10T12:14:33.531Z,2.50
2023-04-10T12:19:31.615Z,2.70
2023-04-10T12:22:08.891Z,2.67
2023-04-10T12:24:44.882Z,2.97
2023-04-10T12:27:25.910Z,3.10
2023-04-10T12:32:24.666Z,3.22
2023-04-10T12:35:02.704Z,2.40
2023-04-10T12:37:55.349Z,2.80
2023-04-10T12:40:23.327Z,2.60
2023-04-10T12:42:55.096Z,2.30
2023-04-10T12:45:41.584Z,2.58
2023-04-10T12:48:09.972Z,2.60
2023-04-10T12:50:48.293Z,2.20
2023-04-10T12:53:17.003Z,2.90
2023-04-10T12:56:05.702Z,3.65
2023-04-10T12:58:35.133Z,2.60
2023-04-10T13:01:09.647Z,2.65
2023-04-10T13:03:38.879Z,3.67
2023-04-10T13:06:08.161Z,2.60
2023-04-10T13:08:37.435Z,2.78
2023-04-10T13:11:07.385Z,2.90
2023-04-10T13:13:35.927Z,3.35
2023-04-10T13:16:05.207Z,2.88
2023-04-10T13:18:33.436Z,3.53
2023-04-10T13:21:02.434Z,3.15
2023-04-10T13:23:30.802Z,3.53
2023-04-10T13:25:59.403Z,3.78
2023-04-10T13:28:27.669Z,3.10
2023-04-10T13:30:56.883Z,3.70
2023-04-10T13:33:25.387Z,2.80
2023-04-10T13:35:59.578Z,2.88
2023-04-10T13:38:35.532Z,2.85
2023-04-10T13:41:04.336Z,3.22
2023-04-10T13:43:32.365Z,2.55
2023-04-10T13:46:00.930Z,2.85
2023-04-10T13:48:37.546Z,2.58
2023-04-10T13:51:08.635Z,2.60
2023-04-10T13:53:37.564Z,1.98
2023-04-10T13:56:07.017Z,2.45
2023-04-10T13:58:35.368Z,2.40
2023-04-10T14:01:03.707Z,1.90
2023-04-10T14:03:32.665Z,1.85
2023-04-10T14:06:01.469Z,1.73
2023-04-10T14:08:29.645Z,2.17
2023-04-10T14:10:58.562Z,2.42
2023-04-10T14:13:28.060Z,2.08
2023-04-10T14:15:56.835Z,2.60
2023-04-10T14:18:25.793Z,2.05
2023-04-10T14:20:54.073Z,2.20
2023-04-10T14:23:23.170Z,2.40
2023-04-10T14:25:51.746Z,1.80
2023-04-10T14:28:25.064Z,2.38
2023-04-10T14:30:53.419Z,2.53
2023-04-10T14:33:21.889Z,2.30
2023-04-10T14:35:51.724Z,2.15
2023-04-10T14:38:20.178Z,2.22
2023-04-10T14:40:50.510Z,2.17
2023-04-10T14:43:20.013Z,2.30
2023-04-10T14:45:48.823Z,2.30
2023-04-10T14:48:17.829Z,2.63
2023-04-10T14:50:49.758Z,2.55
2023-04-10T14:53:21.808Z,2.33
2023-04-10T14:55:50.452Z,2.50
2023-04-10T14:58:20.410Z,2.50
2023-04-10T15:00:48.994Z,2.40
2023-04-10T15:03:17.033Z,2.50
2023-04-10T15:05:47.453Z,2.75
2023-04-10T15:08:15.564Z,2.40
2023-04-10T15:10:43.798Z,2.47
2023-04-10T15:13:12.420Z,2.58
2023-04-10T15:15:40.718Z,2.65
2023-04-10T15:18:09.267Z,3.05
2023-04-10T15:20:37.889Z,2.92
2023-04-10T15:23:06.346Z,2.80
2023-04-10T15:25:37.889Z,2.95
2023-04-10T15:28:08.112Z,2.47
2023-04-10T15:30:36.226Z,2.55
2023-04-10T15:33:04.816Z,2.42
2023-04-10T15:35:37.579Z,2.28
2023-04-10T15:38:07.482Z,2.85
2023-04-10T15:40:39.933Z,2.50
2023-04-10T15:43:08.204Z,2.63
2023-04-10T15:45:37.765Z,2.83
2023-04-10T15:48:06.125Z,2.60
2023-04-10T15:50:35.725Z,2.72
2023-04-10T15:53:03.998Z,2.78
2023-04-10T15:55:31.971Z,2.45
2023-04-10T15:58:01.769Z,2.97
2023-04-10T16:00:33.664Z,2.30
2023-04-10T16:03:03.573Z,3.15
2023-04-10T16:05:32.254Z,2.47
2023-04-10T16:08:00.355Z,2.53
2023-04-10T16:10:28.543Z,2.22
2023-04-10T16:12:56.917Z,2.03
2023-04-10T16:15:24.752Z,2.67
2023-04-10T16:17:52.774Z,2.33
2023-04-10T16:20:21.115Z,2.40
2023-04-10T16:22:50.755Z,2.60
2023-04-10T16:25:21.503Z,2.70
2023-04-10T16:30:21.818Z,2.50
2023-04-10T16:32:49.850Z,2.53
2023-04-10T16:35:19.440Z,2.20
2023-04-10T16:37:48.454Z,2.13
2023-04-10T16:40:16.587Z,2.13
2023-04-10T16:42:44.979Z,2.42
2023-04-10T16:45:13.374Z,2.90
2023-04-10T16:47:42.423Z,1.63
2023-04-10T16:50:13.937Z,1.90
2023-04-10T16:52:43.830Z,1.92
2023-04-10T16:55:15.834Z,2.40
2023-04-10T16:57:48.233Z,2.17
2023-04-10T17:00:19.398Z,1.80
2023-04-10T17:02:48.940Z,1.83
2023-04-10T17:05:17.883Z,1.70
2023-04-10T17:07:45.998Z,1.80
2023-04-10T17:10:15.309Z,1.88
2023-04-10T17:12:43.808Z,1.63
2023-04-10T17:15:13.783Z,1.80
2023-04-10T17:17:42.107Z,1.73
2023-04-10T17:20:12.213Z,1.50
2023-04-10T17:22:41.949Z,1.75
2023-04-10T17:25:11.086Z,1.80
2023-04-10T17:27:40.742Z,1.65
2023-04-10T17:30:13.026Z,1.95
2023-04-10T17:32:44.835Z,1.52
2023-04-10T17:35:12.995Z,1.67
2023-04-10T17:37:41.067Z,1.63
2023-04-10T17:40:10.184Z,1.73
2023-04-10T17:42:40.381Z,1.67
2023-04-10T17:45:09.131Z,1.63
2023-04-10T17:47:37.999Z,1.80
2023-04-10T17:50:08.538Z,1.67
2023-04-10T17:52:42.517Z,1.85
2023-04-10T17:55:10.700Z,1.50
2023-04-10T17:57:40.549Z,1.45
2023-04-10T18:00:11.367Z,1.88
2023-04-10T18:02:39.540Z,1.85
2023-04-10T18:05:08.787Z,2.00
2023-04-10T18:07:38.184Z,1.52
2023-04-10T18:10:09.727Z,2.10
2023-04-10T18:12:40.862Z,2.00
2023-04-10T18:15:09.804Z,2.17
2023-04-10T18:17:39.392Z,1.52
2023-04-10T18:20:08.784Z,1.95
2023-04-10T18:22:36.859Z,1.77
2023-04-10T18:25:08.530Z,1.98
2023-04-10T18:27:36.909Z,1.70
2023-04-10T18:30:05.385Z,1.63
2023-04-10T18:32:34.030Z,1.95
2023-04-10T18:35:04.144Z,1.75
2023-04-10T18:37:33.005Z,1.88
2023-04-10T18:40:09.879Z,1.83
2023-04-10T18:42:44.107Z,1.90
2023-04-10T18:45:13.315Z,1.75
2023-04-10T18:47:41.822Z,1.88
2023-04-10T18:50:12.217Z,2.50
2023-04-10T18:52:40.178Z,1.77
2023-04-10T18:55:08.570Z,2.17
2023-04-10T18:57:36.561Z,1.95
2023-04-10T19:00:07.083Z,2.17
2023-04-10T19:02:39.132Z,2.17
2023-04-10T19:05:08.747Z,1.77
2023-04-10T19:07:43.289Z,2.10
2023-04-10T19:10:16.818Z,1.92
2023-04-10T19:12:45.701Z,2.38
2023-04-10T19:15:14.665Z,2.42
2023-04-10T19:17:42.803Z,1.98
2023-04-10T19:20:11.527Z,1.85
2023-04-10T19:22:40.004Z,2.30
2023-04-10T19:25:08.473Z,2.75
2023-04-10T19:27:37.146Z,2.47
2023-04-10T19:30:06.154Z,2.10
2023-04-10T19:32:42.366Z,2.75
2023-04-10T19:35:13.668Z,2.50
2023-04-10T19:37:42.965Z,2.20
2023-04-10T19:40:11.967Z,2.50
2023-04-10T19:42:40.417Z,2.22
2023-04-10T19:45:09.458Z,2.42
2023-04-10T19:47:38.880Z,2.50
2023-04-10T19:50:08.292Z,1.73
2023-04-10T19:52:37.838Z,2.42
2023-04-10T19:55:07.832Z,1.77
2023-04-10T19:57:39.139Z,2.22
2023-04-10T20:00:10.136Z,2.17
2023-04-10T20:02:42.514Z,2.63
2023-04-10T20:05:11.707Z,2.25
2023-04-10T20:07:39.927Z,2.33
2023-04-10T20:10:11.082Z,2.20
2023-04-10T20:12:39.920Z,2.60
2023-04-10T20:15:09.171Z,2.42
2023-04-10T20:17:39.888Z,2.25
2023-04-10T20:20:09.073Z,1.90
2023-04-10T20:22:37.656Z,2.03
2023-04-10T20:25:07.377Z,2.35
2023-04-10T20:27:35.517Z,2.28
2023-04-10T20:30:05.348Z,2.17
2023-04-10T20:32:34.959Z,2.28
2023-04-10T20:35:03.872Z,2.55
2023-04-10T20:37:32.225Z,2.40
2023-04-10T20:40:01.211Z,2.50
2023-04-10T20:42:29.646Z,2.00
2023-04-10T20:44:58.211Z,2.00
2023-04-10T20:47:26.902Z,1.70
2023-04-10T20:49:55.364Z,3.13
2023-04-10T20:52:24.547Z,1.88
2023-04-10T20:54:53.165Z,2.08
2023-04-10T20:57:21.476Z,2.00
2023-04-10T20:59:50.358Z,2.15
2023-04-10T21:02:19.057Z,1.95
2023-04-10T21:04:47.944Z,2.28
2023-04-10T21:07:16.078Z,2.47
2023-04-10T21:09:45.086Z,1.98
2023-04-10T21:12:13.805Z,2.38
2023-04-10T21:14:42.072Z,2.60
2023-04-10T21:17:10.040Z,1.90
2023-04-10T21:19:38.209Z,2.10
2023-04-10T21:22:06.705Z,2.45
2023-04-10T21:24:36.746Z,1.90
2023-04-10T21:27:05.737Z,2.08
2023-04-10T21:29:35.305Z,2.10
2023-04-10T21:32:03.952Z,1.90
2023-04-10T21:34:36.419Z,1.77
2023-04-10T21:37:05.115Z,2.05
2023-04-10T21:39:39.426Z,1.80
2023-04-10T21:42:08.848Z,2.45
2023-04-10T21:44:44.558Z,1.65
2023-04-10T21:47:14.581Z,1.83
2023-04-10T21:49:42.967Z,1.98
2023-04-10T21:52:18.648Z,1.67
2023-04-10T21:54:46.985Z,1.90
2023-04-10T21:57:15.607Z,2.33
2023-04-10T21:59:46.038Z,1.80
2023-04-10T22:02:14.749Z,1.60
2023-04-10T22:04:53.808Z,1.95
2023-04-10T22:07:23.601Z,1.83
2023-04-10T22:09:52.064Z,2.28
2023-04-10T22:12:21.555Z,2.13
2023-04-10T22:14:51.456Z,1.90
2023-04-10T22:17:19.817Z,2.15
2023-04-10T22:19:48.764Z,2.30
2023-04-10T22:22:20.944Z,2.13
2023-04-10T22:24:50.333Z,2.15
2023-04-10T22:27:18.926Z,2.72
2023-04-10T22:30:02.196Z,2.10
2023-04-10T22:32:32.130Z,1.85
2023-04-10T22:35:01.381Z,2.10
2023-04-10T22:37:30.111Z,1.60
2023-04-10T22:40:00.866Z,1.63
2023-04-10T22:42:32.002Z,2.00
2023-04-10T22:45:00.904Z,1.52
2023-04-10T22:47:29.227Z,1.45
2023-04-10T22:49:58.818Z,1.80
2023-04-10T22:52:27.407Z,1.83
2023-04-10T22:54:55.961Z,1.90
2023-04-10T22:57:24.676Z,1.90
2023-04-10T22:59:52.880Z,1.70
2023-04-10T23:02:21.550Z,1.77
2023-04-10T23:04:51.146Z,1.20
2023-04-10T23:07:19.454Z,1.85
2023-04-10T23:09:47.899Z,1.58
2023-04-10T23:12:16.102Z,2.08
2023-04-10T23:14:45.270Z,1.60
2023-04-10T23:17:15.122Z,1.63
2023-04-10T23:19:43.397Z,1.45
2023-04-10T23:22:13.226Z,1.65
2023-04-10T23:24:42.316Z,1.45
2023-04-10T23:27:11.230Z,1.63
2023-04-10T23:29:40.119Z,1.33
2023-04-10T23:32:08.607Z,2.03
2023-04-10T23:34:37.459Z,1.60
2023-04-10T23:37:05.575Z,1.92
2023-04-10T23:39:34.771Z,1.52
2023-04-10T23:42:03.672Z,2.05
2023-04-10T23:44:32.003Z,1.80
2023-04-10T23:47:00.858Z,1.60
2023-04-10T23:49:29.037Z,2.00
2023-04-10T23:51:57.189Z,1.73
2023-04-10T23:54:25.159Z,2.30
2023-04-10T23:56:53.243Z,2.10
2023-04-10T23:59:21.393Z,2.10
